sensor_id;sensor_type;location;lat;lon;timestamp;P1;durP1;ratioP1;P2;durP2;ratioP2
69594;SDS011;56800;52.142;5.364;2023-08-20T00:01:32;8.43;;;2.67;;
69594;SDS011;56800;52.142;5.364;2023-08-20T00:03:59;9.50;;;3.00;;
69594;SDS011;56800;52.142;5.364;2023-08-20T00:06:26;10.63;;;3.08;;
69594;SDS011;56800;52.142;5.364;2023-08-20T00:08:53;9.77;;;2.80;;
69594;SDS011;56800;52.142;5.364;2023-08-20T00:11:20;8.15;;;3.45;;
69594;SDS011;56800;52.142;5.364;2023-08-20T00:13:47;8.00;;;2.47;;
69594;SDS011;56800;52.142;5.364;2023-08-20T00:16:13;9.07;;;3.13;;
69594;SDS011;56800;52.142;5.364;2023-08-20T00:18:41;7.50;;;3.00;;
69594;SDS011;56800;52.142;5.364;2023-08-20T00:21:08;8.63;;;2.70;;
69594;SDS011;56800;52.142;5.364;2023-08-20T00:23:35;12.55;;;2.88;;
69594;SDS011;56800;52.142;5.364;2023-08-20T00:26:03;13.97;;;3.37;;
69594;SDS011;56800;52.142;5.364;2023-08-20T00:28:30;13.07;;;2.78;;
69594;SDS011;56800;52.142;5.364;2023-08-20T00:31:00;11.75;;;3.25;;
69594;SDS011;56800;52.142;5.364;2023-08-20T00:33:27;9.40;;;2.92;;
69594;SDS011;56800;52.142;5.364;2023-08-20T00:35:54;11.73;;;3.33;;
69594;SDS011;56800;52.142;5.364;2023-08-20T00:38:21;10.83;;;2.77;;
69594;SDS011;56800;52.142;5.364;2023-08-20T00:40:48;9.77;;;2.70;;
69594;SDS011;56800;52.142;5.364;2023-08-20T00:43:14;7.80;;;2.80;;
69594;SDS011;56800;52.142;5.364;2023-08-20T00:45:41;13.50;;;3.72;;
69594;SDS011;56800;52.142;5.364;2023-08-20T00:48:09;9.48;;;2.70;;
69594;SDS011;56800;52.142;5.364;2023-08-20T00:50:37;7.30;;;2.40;;
69594;SDS011;56800;52.142;5.364;2023-08-20T00:53:05;9.88;;;2.70;;
69594;SDS011;56800;52.142;5.364;2023-08-20T00:55:34;15.93;;;2.78;;
69594;SDS011;56800;52.142;5.364;2023-08-20T00:58:02;11.23;;;2.45;;
69594;SDS011;56800;52.142;5.364;2023-08-20T01:00:29;10.82;;;2.70;;
69594;SDS011;56800;52.142;5.364;2023-08-20T01:02:55;10.90;;;3.10;;
69594;SDS011;56800;52.142;5.364;2023-08-20T01:05:22;12.38;;;2.90;;
69594;SDS011;56800;52.142;5.364;2023-08-20T01:13:04;11.20;;;2.67;;
69594;SDS011;56800;52.142;5.364;2023-08-20T01:15:31;8.67;;;2.40;;
69594;SDS011;56800;52.142;5.364;2023-08-20T01:17:58;9.93;;;2.70;;
69594;SDS011;56800;52.142;5.364;2023-08-20T01:20:27;15.15;;;2.80;;
69594;SDS011;56800;52.142;5.364;2023-08-20T01:23:10;9.43;;;2.53;;
69594;SDS011;56800;52.142;5.364;2023-08-20T01:29:06;8.07;;;2.70;;
69594;SDS011;56800;52.142;5.364;2023-08-20T01:31:34;7.60;;;2.53;;
69594;SDS011;56800;52.142;5.364;2023-08-20T01:34:01;12.95;;;3.47;;
69594;SDS011;56800;52.142;5.364;2023-08-20T01:36:29;10.15;;;2.83;;
69594;SDS011;56800;52.142;5.364;2023-08-20T01:38:55;12.63;;;3.35;;
69594;SDS011;56800;52.142;5.364;2023-08-20T01:41:22;8.97;;;3.03;;
69594;SDS011;56800;52.142;5.364;2023-08-20T01:43:49;9.88;;;2.78;;
69594;SDS011;56800;52.142;5.364;2023-08-20T01:46:16;12.82;;;3.58;;
69594;SDS011;56800;52.142;5.364;2023-08-20T01:48:42;14.02;;;3.50;;
69594;SDS011;56800;52.142;5.364;2023-08-20T01:51:09;11.27;;;3.45;;
69594;SDS011;56800;52.142;5.364;2023-08-20T01:53:36;12.93;;;2.90;;
69594;SDS011;56800;52.142;5.364;2023-08-20T01:56:02;12.73;;;3.95;;
69594;SDS011;56800;52.142;5.364;2023-08-20T01:58:30;15.15;;;3.40;;
69594;SDS011;56800;52.142;5.364;2023-08-20T02:00:58;12.23;;;3.15;;
69594;SDS011;56800;52.142;5.364;2023-08-20T02:03:25;9.95;;;3.08;;
69594;SDS011;56800;52.142;5.364;2023-08-20T02:05:51;12.27;;;3.37;;
69594;SDS011;56800;52.142;5.364;2023-08-20T02:08:18;13.35;;;4.00;;
69594;SDS011;56800;52.142;5.364;2023-08-20T02:10:45;18.10;;;3.55;;
69594;SDS011;56800;52.142;5.364;2023-08-20T02:13:11;13.13;;;3.35;;
69594;SDS011;56800;52.142;5.364;2023-08-20T02:15:38;14.77;;;4.15;;
69594;SDS011;56800;52.142;5.364;2023-08-20T02:18:05;11.20;;;3.67;;
69594;SDS011;56800;52.142;5.364;2023-08-20T02:20:32;8.68;;;2.88;;
69594;SDS011;56800;52.142;5.364;2023-08-20T02:22:59;11.70;;;3.28;;
69594;SDS011;56800;52.142;5.364;2023-08-20T02:25:25;13.07;;;3.00;;
69594;SDS011;56800;52.142;5.364;2023-08-20T02:27:52;10.02;;;3.05;;
69594;SDS011;56800;52.142;5.364;2023-08-20T02:30:19;10.50;;;3.33;;
69594;SDS011;56800;52.142;5.364;2023-08-20T02:32:46;14.75;;;3.88;;
69594;SDS011;56800;52.142;5.364;2023-08-20T02:35:13;11.98;;;3.65;;
69594;SDS011;56800;52.142;5.364;2023-08-20T02:37:41;9.10;;;2.80;;
69594;SDS011;56800;52.142;5.364;2023-08-20T02:40:08;13.48;;;3.67;;
69594;SDS011;56800;52.142;5.364;2023-08-20T02:42:36;9.07;;;3.57;;
69594;SDS011;56800;52.142;5.364;2023-08-20T02:45:03;10.55;;;3.90;;
69594;SDS011;56800;52.142;5.364;2023-08-20T02:47:30;11.73;;;3.50;;
69594;SDS011;56800;52.142;5.364;2023-08-20T02:49:57;13.52;;;3.20;;
69594;SDS011;56800;52.142;5.364;2023-08-20T02:52:24;12.93;;;3.83;;
69594;SDS011;56800;52.142;5.364;2023-08-20T02:54:50;13.57;;;3.60;;
69594;SDS011;56800;52.142;5.364;2023-08-20T02:57:17;13.27;;;4.00;;
69594;SDS011;56800;52.142;5.364;2023-08-20T02:59:44;13.90;;;3.40;;
69594;SDS011;56800;52.142;5.364;2023-08-20T03:02:10;12.45;;;3.60;;
69594;SDS011;56800;52.142;5.364;2023-08-20T03:04:37;14.63;;;3.72;;
69594;SDS011;56800;52.142;5.364;2023-08-20T03:07:04;16.27;;;4.17;;
69594;SDS011;56800;52.142;5.364;2023-08-20T03:09:31;12.10;;;3.20;;
69594;SDS011;56800;52.142;5.364;2023-08-20T03:11:58;17.80;;;4.18;;
69594;SDS011;56800;52.142;5.364;2023-08-20T03:14:24;11.48;;;3.65;;
69594;SDS011;56800;52.142;5.364;2023-08-20T03:16:54;13.48;;;3.72;;
69594;SDS011;56800;52.142;5.364;2023-08-20T03:19:20;14.37;;;4.00;;
69594;SDS011;56800;52.142;5.364;2023-08-20T03:21:47;16.63;;;4.10;;
69594;SDS011;56800;52.142;5.364;2023-08-20T03:24:14;13.73;;;3.33;;
69594;SDS011;56800;52.142;5.364;2023-08-20T03:26:41;8.80;;;3.60;;
69594;SDS011;56800;52.142;5.364;2023-08-20T03:29:07;15.88;;;4.03;;
69594;SDS011;56800;52.142;5.364;2023-08-20T03:31:34;10.63;;;3.30;;
69594;SDS011;56800;52.142;5.364;2023-08-20T03:34:01;15.85;;;4.03;;
69594;SDS011;56800;52.142;5.364;2023-08-20T03:36:28;11.88;;;3.58;;
69594;SDS011;56800;52.142;5.364;2023-08-20T03:38:54;14.85;;;4.10;;
69594;SDS011;56800;52.142;5.364;2023-08-20T03:41:21;14.82;;;3.63;;
69594;SDS011;56800;52.142;5.364;2023-08-20T03:43:48;11.67;;;3.30;;
69594;SDS011;56800;52.142;5.364;2023-08-20T03:46:14;10.82;;;3.63;;
69594;SDS011;56800;52.142;5.364;2023-08-20T03:48:42;14.02;;;4.20;;
69594;SDS011;56800;52.142;5.364;2023-08-20T03:51:09;14.60;;;3.75;;
69594;SDS011;56800;52.142;5.364;2023-08-20T03:53:36;12.30;;;3.58;;
69594;SDS011;56800;52.142;5.364;2023-08-20T03:56:03;10.17;;;2.90;;
69594;SDS011;56800;52.142;5.364;2023-08-20T03:58:30;17.10;;;3.75;;
69594;SDS011;56800;52.142;5.364;2023-08-20T04:00:56;9.38;;;3.10;;
69594;SDS011;56800;52.142;5.364;2023-08-20T04:03:23;14.50;;;3.78;;
69594;SDS011;56800;52.142;5.364;2023-08-20T04:05:50;11.13;;;3.35;;
69594;SDS011;56800;52.142;5.364;2023-08-20T04:08:17;12.30;;;3.40;;
69594;SDS011;56800;52.142;5.364;2023-08-20T04:10:44;10.75;;;3.13;;
69594;SDS011;56800;52.142;5.364;2023-08-20T04:13:12;16.00;;;3.60;;
69594;SDS011;56800;52.142;5.364;2023-08-20T04:15:40;17.38;;;4.00;;
69594;SDS011;56800;52.142;5.364;2023-08-20T04:18:07;14.30;;;3.92;;
69594;SDS011;56800;52.142;5.364;2023-08-20T04:20:34;14.87;;;4.80;;
69594;SDS011;56800;52.142;5.364;2023-08-20T04:23:01;14.75;;;4.75;;
69594;SDS011;56800;52.142;5.364;2023-08-20T04:25:27;16.45;;;4.15;;
69594;SDS011;56800;52.142;5.364;2023-08-20T04:27:54;12.95;;;3.97;;
69594;SDS011;56800;52.142;5.364;2023-08-20T04:30:21;14.63;;;4.78;;
69594;SDS011;56800;52.142;5.364;2023-08-20T04:32:48;13.70;;;4.47;;
69594;SDS011;56800;52.142;5.364;2023-08-20T04:35:15;11.02;;;4.53;;
69594;SDS011;56800;52.142;5.364;2023-08-20T04:37:42;14.82;;;4.70;;
69594;SDS011;56800;52.142;5.364;2023-08-20T04:40:08;15.40;;;4.82;;
69594;SDS011;56800;52.142;5.364;2023-08-20T04:42:36;20.25;;;4.65;;
69594;SDS011;56800;52.142;5.364;2023-08-20T04:45:02;17.83;;;4.90;;
69594;SDS011;56800;52.142;5.364;2023-08-20T04:47:30;16.05;;;4.78;;
69594;SDS011;56800;52.142;5.364;2023-08-20T04:49:57;16.70;;;5.25;;
69594;SDS011;56800;52.142;5.364;2023-08-20T04:52:24;15.55;;;4.55;;
69594;SDS011;56800;52.142;5.364;2023-08-20T04:54:50;17.10;;;4.38;;
69594;SDS011;56800;52.142;5.364;2023-08-20T04:57:17;13.47;;;3.97;;
69594;SDS011;56800;52.142;5.364;2023-08-20T04:59:44;17.88;;;4.32;;
69594;SDS011;56800;52.142;5.364;2023-08-20T05:02:11;12.32;;;4.18;;
69594;SDS011;56800;52.142;5.364;2023-08-20T05:04:38;15.75;;;4.32;;
69594;SDS011;56800;52.142;5.364;2023-08-20T05:07:06;14.05;;;4.38;;
69594;SDS011;56800;52.142;5.364;2023-08-20T05:09:32;12.50;;;3.90;;
69594;SDS011;56800;52.142;5.364;2023-08-20T05:11:59;16.00;;;4.07;;
69594;SDS011;56800;52.142;5.364;2023-08-20T05:14:26;10.38;;;4.13;;
69594;SDS011;56800;52.142;5.364;2023-08-20T05:16:53;15.10;;;4.15;;
69594;SDS011;56800;52.142;5.364;2023-08-20T05:19:19;13.30;;;3.38;;
69594;SDS011;56800;52.142;5.364;2023-08-20T05:21:46;16.80;;;3.63;;
69594;SDS011;56800;52.142;5.364;2023-08-20T05:24:13;13.85;;;3.15;;
69594;SDS011;56800;52.142;5.364;2023-08-20T05:26:40;13.30;;;3.20;;
69594;SDS011;56800;52.142;5.364;2023-08-20T05:29:06;13.07;;;3.35;;
69594;SDS011;56800;52.142;5.364;2023-08-20T05:31:33;12.98;;;3.63;;
69594;SDS011;56800;52.142;5.364;2023-08-20T05:34:00;8.60;;;2.93;;
69594;SDS011;56800;52.142;5.364;2023-08-20T05:36:27;8.15;;;3.17;;
69594;SDS011;56800;52.142;5.364;2023-08-20T05:38:53;10.60;;;3.20;;
69594;SDS011;56800;52.142;5.364;2023-08-20T05:41:20;10.07;;;3.22;;
69594;SDS011;56800;52.142;5.364;2023-08-20T05:43:47;9.35;;;3.83;;
69594;SDS011;56800;52.142;5.364;2023-08-20T05:46:13;22.47;;;3.43;;
69594;SDS011;56800;52.142;5.364;2023-08-20T05:48:40;13.52;;;3.85;;
69594;SDS011;56800;52.142;5.364;2023-08-20T05:51:07;14.00;;;4.07;;
69594;SDS011;56800;52.142;5.364;2023-08-20T05:53:33;11.63;;;3.30;;
69594;SDS011;56800;52.142;5.364;2023-08-20T05:56:00;16.10;;;4.38;;
69594;SDS011;56800;52.142;5.364;2023-08-20T05:58:27;11.40;;;3.70;;
69594;SDS011;56800;52.142;5.364;2023-08-20T06:00:54;13.85;;;3.47;;
69594;SDS011;56800;52.142;5.364;2023-08-20T06:03:20;13.88;;;3.67;;
69594;SDS011;56800;52.142;5.364;2023-08-20T06:05:47;11.23;;;3.72;;
69594;SDS011;56800;52.142;5.364;2023-08-20T06:08:14;13.35;;;3.95;;
69594;SDS011;56800;52.142;5.364;2023-08-20T06:10:40;11.10;;;4.07;;
69594;SDS011;56800;52.142;5.364;2023-08-20T06:13:07;15.13;;;3.95;;
69594;SDS011;56800;52.142;5.364;2023-08-20T06:15:34;11.98;;;3.88;;
69594;SDS011;56800;52.142;5.364;2023-08-20T06:18:01;9.65;;;3.40;;
69594;SDS011;56800;52.142;5.364;2023-08-20T06:20:27;13.07;;;3.45;;
69594;SDS011;56800;52.142;5.364;2023-08-20T06:22:54;13.80;;;3.70;;
69594;SDS011;56800;52.142;5.364;2023-08-20T06:25:21;11.00;;;3.88;;
69594;SDS011;56800;52.142;5.364;2023-08-20T06:27:48;11.13;;;3.78;;
69594;SDS011;56800;52.142;5.364;2023-08-20T06:30:14;12.43;;;3.90;;
69594;SDS011;56800;52.142;5.364;2023-08-20T06:32:41;9.13;;;2.95;;
69594;SDS011;56800;52.142;5.364;2023-08-20T06:35:10;13.43;;;2.80;;
69594;SDS011;56800;52.142;5.364;2023-08-20T06:37:40;8.48;;;3.05;;
69594;SDS011;56800;52.142;5.364;2023-08-20T06:40:07;19.42;;;3.90;;
69594;SDS011;56800;52.142;5.364;2023-08-20T06:42:34;14.73;;;3.45;;
69594;SDS011;56800;52.142;5.364;2023-08-20T06:45:04;14.40;;;3.40;;
69594;SDS011;56800;52.142;5.364;2023-08-20T06:47:32;13.07;;;3.17;;
69594;SDS011;56800;52.142;5.364;2023-08-20T06:49:59;13.73;;;3.20;;
69594;SDS011;56800;52.142;5.364;2023-08-20T06:52:26;13.70;;;3.10;;
69594;SDS011;56800;52.142;5.364;2023-08-20T06:54:52;13.57;;;3.17;;
69594;SDS011;56800;52.142;5.364;2023-08-20T06:57:19;14.82;;;3.05;;
69594;SDS011;56800;52.142;5.364;2023-08-20T06:59:46;9.37;;;3.03;;
69594;SDS011;56800;52.142;5.364;2023-08-20T07:02:12;17.95;;;3.42;;
69594;SDS011;56800;52.142;5.364;2023-08-20T07:04:40;10.95;;;3.17;;
69594;SDS011;56800;52.142;5.364;2023-08-20T07:07:06;13.73;;;3.40;;
69594;SDS011;56800;52.142;5.364;2023-08-20T07:09:34;13.50;;;3.67;;
69594;SDS011;56800;52.142;5.364;2023-08-20T07:12:01;13.27;;;3.50;;
69594;SDS011;56800;52.142;5.364;2023-08-20T07:14:28;11.23;;;3.17;;
69594;SDS011;56800;52.142;5.364;2023-08-20T07:16:55;14.40;;;2.85;;
69594;SDS011;56800;52.142;5.364;2023-08-20T07:19:21;10.75;;;2.75;;
69594;SDS011;56800;52.142;5.364;2023-08-20T07:21:48;11.10;;;2.40;;
69594;SDS011;56800;52.142;5.364;2023-08-20T07:24:15;14.43;;;3.03;;
69594;SDS011;56800;52.142;5.364;2023-08-20T07:26:42;17.00;;;3.35;;
69594;SDS011;56800;52.142;5.364;2023-08-20T07:29:10;13.40;;;2.70;;
69594;SDS011;56800;52.142;5.364;2023-08-20T07:31:36;17.42;;;3.72;;
69594;SDS011;56800;52.142;5.364;2023-08-20T07:34:03;14.82;;;3.45;;
69594;SDS011;56800;52.142;5.364;2023-08-20T07:36:31;11.77;;;2.80;;
69594;SDS011;56800;52.142;5.364;2023-08-20T07:38:58;11.60;;;2.55;;
69594;SDS011;56800;52.142;5.364;2023-08-20T07:41:27;14.18;;;3.08;;
69594;SDS011;56800;52.142;5.364;2023-08-20T07:43:54;13.05;;;3.53;;
69594;SDS011;56800;52.142;5.364;2023-08-20T07:46:21;12.13;;;2.72;;
69594;SDS011;56800;52.142;5.364;2023-08-20T07:48:48;15.57;;;3.17;;
69594;SDS011;56800;52.142;5.364;2023-08-20T07:51:14;13.15;;;2.85;;
69594;SDS011;56800;52.142;5.364;2023-08-20T07:53:41;10.60;;;2.75;;
69594;SDS011;56800;52.142;5.364;2023-08-20T07:56:08;14.05;;;3.08;;
69594;SDS011;56800;52.142;5.364;2023-08-20T07:58:35;9.77;;;2.50;;
69594;SDS011;56800;52.142;5.364;2023-08-20T08:01:01;9.23;;;2.70;;
69594;SDS011;56800;52.142;5.364;2023-08-20T08:03:31;10.23;;;2.88;;
69594;SDS011;56800;52.142;5.364;2023-08-20T08:05:58;13.75;;;2.80;;
69594;SDS011;56800;52.142;5.364;2023-08-20T08:08:25;9.40;;;2.70;;
69594;SDS011;56800;52.142;5.364;2023-08-20T08:10:52;10.95;;;2.90;;
69594;SDS011;56800;52.142;5.364;2023-08-20T08:13:19;11.00;;;2.53;;
69594;SDS011;56800;52.142;5.364;2023-08-20T08:15:47;13.93;;;2.88;;
69594;SDS011;56800;52.142;5.364;2023-08-20T08:18:15;12.60;;;2.47;;
69594;SDS011;56800;52.142;5.364;2023-08-20T08:20:42;14.23;;;2.70;;
69594;SDS011;56800;52.142;5.364;2023-08-20T08:23:09;9.43;;;2.30;;
69594;SDS011;56800;52.142;5.364;2023-08-20T08:25:36;10.23;;;2.67;;
69594;SDS011;56800;52.142;5.364;2023-08-20T08:28:04;9.20;;;2.25;;
69594;SDS011;56800;52.142;5.364;2023-08-20T08:30:31;10.13;;;2.28;;
69594;SDS011;56800;52.142;5.364;2023-08-20T08:32:58;8.80;;;2.42;;
69594;SDS011;56800;52.142;5.364;2023-08-20T08:35:25;10.20;;;2.67;;
69594;SDS011;56800;52.142;5.364;2023-08-20T08:37:52;10.33;;;2.60;;
69594;SDS011;56800;52.142;5.364;2023-08-20T08:40:19;7.72;;;2.47;;
69594;SDS011;56800;52.142;5.364;2023-08-20T08:42:49;6.72;;;2.28;;
69594;SDS011;56800;52.142;5.364;2023-08-20T08:45:19;7.95;;;2.33;;
69594;SDS011;56800;52.142;5.364;2023-08-20T08:47:46;8.55;;;2.30;;
69594;SDS011;56800;52.142;5.364;2023-08-20T08:50:14;7.93;;;2.10;;
69594;SDS011;56800;52.142;5.364;2023-08-20T08:52:41;6.95;;;2.83;;
69594;SDS011;56800;52.142;5.364;2023-08-20T08:55:08;8.32;;;2.53;;
69594;SDS011;56800;52.142;5.364;2023-08-20T08:57:38;7.53;;;2.20;;
69594;SDS011;56800;52.142;5.364;2023-08-20T09:00:04;9.95;;;2.15;;
69594;SDS011;56800;52.142;5.364;2023-08-20T09:02:32;10.63;;;2.97;;
69594;SDS011;56800;52.142;5.364;2023-08-20T09:04:58;9.77;;;2.30;;
69594;SDS011;56800;52.142;5.364;2023-08-20T09:07:25;8.48;;;1.98;;
69594;SDS011;56800;52.142;5.364;2023-08-20T09:09:56;9.73;;;2.40;;
69594;SDS011;56800;52.142;5.364;2023-08-20T09:12:27;7.72;;;2.28;;
69594;SDS011;56800;52.142;5.364;2023-08-20T09:14:54;7.63;;;2.50;;
69594;SDS011;56800;52.142;5.364;2023-08-20T09:17:27;7.88;;;2.13;;
69594;SDS011;56800;52.142;5.364;2023-08-20T09:19:55;7.68;;;2.63;;
69594;SDS011;56800;52.142;5.364;2023-08-20T09:22:23;8.73;;;2.70;;
69594;SDS011;56800;52.142;5.364;2023-08-20T09:24:54;7.40;;;2.30;;
69594;SDS011;56800;52.142;5.364;2023-08-20T09:27:22;7.80;;;2.17;;
69594;SDS011;56800;52.142;5.364;2023-08-20T09:29:56;7.72;;;2.53;;
69594;SDS011;56800;52.142;5.364;2023-08-20T09:32:26;8.48;;;2.50;;
69594;SDS011;56800;52.142;5.364;2023-08-20T09:34:54;11.20;;;2.40;;
69594;SDS011;56800;52.142;5.364;2023-08-20T09:37:23;6.75;;;2.55;;
69594;SDS011;56800;52.142;5.364;2023-08-20T09:39:52;6.38;;;2.55;;
69594;SDS011;56800;52.142;5.364;2023-08-20T09:42:18;6.10;;;2.15;;
69594;SDS011;56800;52.142;5.364;2023-08-20T09:44:45;6.22;;;2.13;;
69594;SDS011;56800;52.142;5.364;2023-08-20T09:47:16;9.05;;;2.33;;
69594;SDS011;56800;52.142;5.364;2023-08-20T09:49:45;6.07;;;2.60;;
69594;SDS011;56800;52.142;5.364;2023-08-20T09:52:16;6.90;;;2.53;;
69594;SDS011;56800;52.142;5.364;2023-08-20T09:57:37;4.80;;;2.40;;
69594;SDS011;56800;52.142;5.364;2023-08-20T10:00:27;8.07;;;2.35;;
69594;SDS011;56800;52.142;5.364;2023-08-20T10:03:11;7.93;;;2.40;;
69594;SDS011;56800;52.142;5.364;2023-08-20T10:05:48;5.47;;;2.53;;
69594;SDS011;56800;52.142;5.364;2023-08-20T10:08:16;5.57;;;2.80;;
69594;SDS011;56800;52.142;5.364;2023-08-20T10:10:43;8.00;;;2.33;;
69594;SDS011;56800;52.142;5.364;2023-08-20T10:13:12;6.68;;;2.20;;
69594;SDS011;56800;52.142;5.364;2023-08-20T10:15:39;6.40;;;2.60;;
69594;SDS011;56800;52.142;5.364;2023-08-20T10:18:11;8.63;;;2.37;;
69594;SDS011;56800;52.142;5.364;2023-08-20T10:20:38;5.65;;;2.75;;
69594;SDS011;56800;52.142;5.364;2023-08-20T10:23:06;6.50;;;2.58;;
69594;SDS011;56800;52.142;5.364;2023-08-20T10:25:40;5.88;;;2.40;;
69594;SDS011;56800;52.142;5.364;2023-08-20T10:28:22;9.10;;;3.08;;
69594;SDS011;56800;52.142;5.364;2023-08-20T10:33:48;5.28;;;2.05;;
69594;SDS011;56800;52.142;5.364;2023-08-20T10:36:17;7.60;;;2.88;;
69594;SDS011;56800;52.142;5.364;2023-08-20T10:38:49;7.28;;;2.63;;
69594;SDS011;56800;52.142;5.364;2023-08-20T10:41:16;8.50;;;2.88;;
69594;SDS011;56800;52.142;5.364;2023-08-20T10:43:51;8.70;;;2.75;;
69594;SDS011;56800;52.142;5.364;2023-08-20T10:46:19;6.30;;;2.80;;
69594;SDS011;56800;52.142;5.364;2023-08-20T10:48:48;6.88;;;2.20;;
69594;SDS011;56800;52.142;5.364;2023-08-20T10:56:37;6.95;;;2.63;;
69594;SDS011;56800;52.142;5.364;2023-08-20T10:59:28;7.25;;;3.05;;
69594;SDS011;56800;52.142;5.364;2023-08-20T11:01:56;8.30;;;2.95;;
69594;SDS011;56800;52.142;5.364;2023-08-20T11:04:28;7.95;;;2.40;;
69594;SDS011;56800;52.142;5.364;2023-08-20T11:06:58;9.07;;;2.88;;
69594;SDS011;56800;52.142;5.364;2023-08-20T11:09:26;8.57;;;2.70;;
69594;SDS011;56800;52.142;5.364;2023-08-20T11:11:54;6.63;;;2.55;;
69594;SDS011;56800;52.142;5.364;2023-08-20T11:14:22;8.63;;;2.63;;
69594;SDS011;56800;52.142;5.364;2023-08-20T11:16:49;5.88;;;2.50;;
69594;SDS011;56800;52.142;5.364;2023-08-20T11:19:20;6.82;;;2.53;;
69594;SDS011;56800;52.142;5.364;2023-08-20T11:21:48;6.57;;;2.50;;
69594;SDS011;56800;52.142;5.364;2023-08-20T11:24:15;8.48;;;2.65;;
69594;SDS011;56800;52.142;5.364;2023-08-20T11:26:44;7.97;;;2.72;;
69594;SDS011;56800;52.142;5.364;2023-08-20T11:29:12;7.72;;;2.60;;
69594;SDS011;56800;52.142;5.364;2023-08-20T11:31:49;7.60;;;3.00;;
69594;SDS011;56800;52.142;5.364;2023-08-20T11:34:17;7.40;;;2.58;;
69594;SDS011;56800;52.142;5.364;2023-08-20T11:36:45;6.47;;;3.28;;
69594;SDS011;56800;52.142;5.364;2023-08-20T11:39:11;9.68;;;2.22;;
69594;SDS011;56800;52.142;5.364;2023-08-20T11:41:39;7.50;;;2.50;;
69594;SDS011;56800;52.142;5.364;2023-08-20T11:44:10;7.07;;;2.83;;
69594;SDS011;56800;52.142;5.364;2023-08-20T11:46:43;10.35;;;2.45;;
69594;SDS011;56800;52.142;5.364;2023-08-20T11:49:33;7.90;;;2.75;;
69594;SDS011;56800;52.142;5.364;2023-08-20T11:52:00;7.38;;;2.38;;
69594;SDS011;56800;52.142;5.364;2023-08-20T11:54:27;7.47;;;2.83;;
69594;SDS011;56800;52.142;5.364;2023-08-20T11:57:01;9.32;;;2.58;;
69594;SDS011;56800;52.142;5.364;2023-08-20T11:59:29;7.72;;;2.70;;
69594;SDS011;56800;52.142;5.364;2023-08-20T12:01:57;7.93;;;3.05;;
69594;SDS011;56800;52.142;5.364;2023-08-20T12:04:29;5.60;;;2.55;;
69594;SDS011;56800;52.142;5.364;2023-08-20T12:09:32;6.88;;;2.85;;
69594;SDS011;56800;52.142;5.364;2023-08-20T12:11:59;6.75;;;2.17;;
69594;SDS011;56800;52.142;5.364;2023-08-20T12:14:26;6.35;;;2.67;;
69594;SDS011;56800;52.142;5.364;2023-08-20T12:16:53;8.85;;;2.58;;
69594;SDS011;56800;52.142;5.364;2023-08-20T12:19:20;7.07;;;2.30;;
69594;SDS011;56800;52.142;5.364;2023-08-20T12:21:48;7.80;;;2.38;;
69594;SDS011;56800;52.142;5.364;2023-08-20T12:24:15;4.07;;;2.40;;
69594;SDS011;56800;52.142;5.364;2023-08-20T12:26:42;7.75;;;2.95;;
69594;SDS011;56800;52.142;5.364;2023-08-20T12:29:09;6.82;;;2.05;;
69594;SDS011;56800;52.142;5.364;2023-08-20T12:31:36;7.00;;;2.70;;
69594;SDS011;56800;52.142;5.364;2023-08-20T12:34:03;7.75;;;2.42;;
69594;SDS011;56800;52.142;5.364;2023-08-20T12:36:30;6.70;;;2.20;;
69594;SDS011;56800;52.142;5.364;2023-08-20T12:38:56;9.35;;;2.92;;
69594;SDS011;56800;52.142;5.364;2023-08-20T12:41:23;8.00;;;2.25;;
69594;SDS011;56800;52.142;5.364;2023-08-20T12:43:50;10.23;;;2.80;;
69594;SDS011;56800;52.142;5.364;2023-08-20T12:46:17;7.95;;;2.70;;
69594;SDS011;56800;52.142;5.364;2023-08-20T12:48:44;7.20;;;2.65;;
69594;SDS011;56800;52.142;5.364;2023-08-20T12:51:11;8.23;;;2.90;;
69594;SDS011;56800;52.142;5.364;2023-08-20T12:53:40;7.65;;;2.28;;
69594;SDS011;56800;52.142;5.364;2023-08-20T12:56:07;4.25;;;1.90;;
69594;SDS011;56800;52.142;5.364;2023-08-20T12:58:34;8.02;;;2.60;;
69594;SDS011;56800;52.142;5.364;2023-08-20T13:01:01;6.93;;;2.30;;
69594;SDS011;56800;52.142;5.364;2023-08-20T13:03:28;8.10;;;2.58;;
69594;SDS011;56800;52.142;5.364;2023-08-20T13:05:55;6.55;;;2.80;;
69594;SDS011;56800;52.142;5.364;2023-08-20T13:08:25;6.68;;;2.65;;
69594;SDS011;56800;52.142;5.364;2023-08-20T13:10:53;8.40;;;2.55;;
69594;SDS011;56800;52.142;5.364;2023-08-20T13:13:22;6.70;;;2.83;;
69594;SDS011;56800;52.142;5.364;2023-08-20T13:15:53;5.85;;;2.17;;
69594;SDS011;56800;52.142;5.364;2023-08-20T13:18:20;6.40;;;2.28;;
69594;SDS011;56800;52.142;5.364;2023-08-20T13:20:54;8.68;;;2.50;;
69594;SDS011;56800;52.142;5.364;2023-08-20T13:23:21;7.80;;;2.67;;
69594;SDS011;56800;52.142;5.364;2023-08-20T13:25:49;6.47;;;2.40;;
69594;SDS011;56800;52.142;5.364;2023-08-20T13:28:16;6.78;;;2.75;;
69594;SDS011;56800;52.142;5.364;2023-08-20T13:30:44;7.75;;;2.30;;
69594;SDS011;56800;52.142;5.364;2023-08-20T13:33:11;8.55;;;2.38;;
69594;SDS011;56800;52.142;5.364;2023-08-20T13:35:40;6.53;;;2.40;;
69594;SDS011;56800;52.142;5.364;2023-08-20T13:38:07;7.25;;;2.40;;
69594;SDS011;56800;52.142;5.364;2023-08-20T13:40:34;7.35;;;3.08;;
69594;SDS011;56800;52.142;5.364;2023-08-20T13:43:00;5.90;;;2.60;;
69594;SDS011;56800;52.142;5.364;2023-08-20T13:45:27;9.82;;;2.80;;
69594;SDS011;56800;52.142;5.364;2023-08-20T13:47:54;6.60;;;2.53;;
69594;SDS011;56800;52.142;5.364;2023-08-20T13:50:21;7.40;;;2.55;;
69594;SDS011;56800;52.142;5.364;2023-08-20T13:52:48;6.88;;;2.38;;
69594;SDS011;56800;52.142;5.364;2023-08-20T13:55:15;8.32;;;2.70;;
69594;SDS011;56800;52.142;5.364;2023-08-20T13:57:42;7.22;;;3.08;;
69594;SDS011;56800;52.142;5.364;2023-08-20T14:00:09;8.77;;;2.97;;
69594;SDS011;56800;52.142;5.364;2023-08-20T14:02:38;6.22;;;2.63;;
69594;SDS011;56800;52.142;5.364;2023-08-20T14:05:06;6.88;;;2.70;;
69594;SDS011;56800;52.142;5.364;2023-08-20T14:07:33;8.45;;;2.88;;
69594;SDS011;56800;52.142;5.364;2023-08-20T14:10:01;10.65;;;3.95;;
69594;SDS011;56800;52.142;5.364;2023-08-20T14:12:29;7.40;;;2.50;;
69594;SDS011;56800;52.142;5.364;2023-08-20T14:14:56;8.77;;;2.92;;
69594;SDS011;56800;52.142;5.364;2023-08-20T14:17:22;7.57;;;3.53;;
69594;SDS011;56800;52.142;5.364;2023-08-20T14:19:49;6.68;;;2.50;;
69594;SDS011;56800;52.142;5.364;2023-08-20T14:22:16;12.40;;;3.38;;
69594;SDS011;56800;52.142;5.364;2023-08-20T14:24:43;9.20;;;3.35;;
69594;SDS011;56800;52.142;5.364;2023-08-20T14:27:10;9.32;;;3.70;;
69594;SDS011;56800;52.142;5.364;2023-08-20T14:29:36;7.13;;;3.50;;
69594;SDS011;56800;52.142;5.364;2023-08-20T14:32:03;9.77;;;2.92;;
69594;SDS011;56800;52.142;5.364;2023-08-20T14:34:30;7.22;;;3.08;;
69594;SDS011;56800;52.142;5.364;2023-08-20T14:36:57;7.22;;;3.00;;
69594;SDS011;56800;52.142;5.364;2023-08-20T14:39:24;7.82;;;3.33;;
69594;SDS011;56800;52.142;5.364;2023-08-20T14:41:51;8.23;;;3.05;;
69594;SDS011;56800;52.142;5.364;2023-08-20T14:44:17;6.40;;;3.58;;
69594;SDS011;56800;52.142;5.364;2023-08-20T14:46:44;8.93;;;2.72;;
69594;SDS011;56800;52.142;5.364;2023-08-20T14:49:11;9.38;;;2.78;;
69594;SDS011;56800;52.142;5.364;2023-08-20T14:51:38;9.98;;;3.17;;
69594;SDS011;56800;52.142;5.364;2023-08-20T14:54:04;10.75;;;3.13;;
69594;SDS011;56800;52.142;5.364;2023-08-20T14:56:31;9.10;;;2.80;;
69594;SDS011;56800;52.142;5.364;2023-08-20T14:58:58;9.43;;;3.45;;
69594;SDS011;56800;52.142;5.364;2023-08-20T15:01:25;8.43;;;3.92;;
69594;SDS011;56800;52.142;5.364;2023-08-20T15:03:52;8.10;;;3.60;;
69594;SDS011;56800;52.142;5.364;2023-08-20T15:06:19;8.40;;;2.90;;